Time;durP1;ratioP1;P1;durP2;ratioP2;P2;SDS_P1;SDS_P2;PMS_P1;PMS_P2;Temp;Humidity;BMP_temperature;BMP_pressure;BME280_temperature;BME280_humidity;BME280_pressure;Samples;Min_cycle;Max_cycle;Signal;HPM_P1;HPM_P2
2024/01/09 00:01:45;;;;;;;8.32;4.90;;;-0.10;57.10;;;;;;5048094;28;20511;-59
2024/01/09 00:04:15;;;;;;;11.30;4.93;;;-0.10;57.10;;;;;;5042759;28;20495;-59
2024/01/09 00:06:44;;;;;;;;;;;-0.10;57.10;;;;;;5031572;28;20111;-56
2024/01/09 00:09:11;;;;;;;9.65;5.65;;;-0.10;57.00;;;;;;5048096;28;19920;-59
2024/01/09 00:11:43;;;;;;;9.27;5.03;;;-0.10;57.30;;;;;;5027999;28;20087;-58
2024/01/09 00:14:13;;;;;;;7.15;4.60;;;-0.10;57.20;;;;;;5024507;28;20036;-60
2024/01/09 00:16:42;;;;;;;8.95;5.47;;;-0.10;57.20;;;;;;5039320;28;20071;-56
2024/01/09 00:19:21;;;;;;;7.85;5.30;;;-0.10;57.20;;;;;;5023747;28;20064;-58
2024/01/09 00:21:50;;;;;;;6.70;4.68;;;-0.20;57.20;;;;;;5038839;28;20050;-58
2024/01/09 00:24:17;;;;;;;7.60;4.95;;;-0.20;57.20;;;;;;5046954;28;20041;-58
2024/01/09 00:26:46;;;;;;;7.47;4.78;;;-0.20;57.30;;;;;;5035810;28;20046;-59
2024/01/09 00:29:14;;;;;;;7.20;4.07;;;-0.20;57.40;;;;;;5041532;28;20083;-57
2024/01/09 00:31:44;;;;;;;7.80;5.10;;;-0.20;57.40;;;;;;5047204;28;20044;-59
2024/01/09 00:34:10;;;;;;;8.02;4.50;;;-0.20;57.40;;;;;;5037900;28;20489;-59
2024/01/09 00:36:48;;;;;;;8.75;5.75;;;-0.20;57.50;;;;;;5045951;28;20071;-57
2024/01/09 00:39:14;;;;;;;8.43;5.32;;;-0.20;57.40;;;;;;5045696;28;20549;-58
2024/01/09 00:41:43;;;;;;;7.60;4.10;;;-0.10;57.50;;;;;;5043385;28;20455;-59
2024/01/09 00:44:10;;;;;;;8.93;5.60;;;-0.30;57.40;;;;;;5034802;28;20090;-57
2024/01/09 00:46:40;;;;;;;8.55;5.18;;;-0.30;57.40;;;;;;5039027;28;20069;-57
2024/01/09 00:49:08;;;;;;;8.77;5.00;;;-0.30;57.50;;;;;;5033129;28;20073;-58
2024/01/09 00:51:37;;;;;;;9.50;4.90;;;-0.30;57.60;;;;;;5045671;28;20045;-58
2024/01/09 00:54:06;;;;;;;9.18;5.43;;;-0.20;57.60;;;;;;5052153;28;20052;-58
2024/01/09 00:56:33;;;;;;;9.38;5.63;;;-0.30;57.70;;;;;;5036706;28;20452;-60
2024/01/09 00:59:02;;;;;;;7.72;5.13;;;-0.30;57.80;;;;;;5035159;28;20048;-59
2024/01/09 01:01:29;;;;;;;10.27;5.85;;;-0.30;57.90;;;;;;5051963;28;20041;-59
2024/01/09 01:03:56;;;;;;;8.20;5.50;;;-0.30;57.90;;;;;;5046181;28;20052;-58
2024/01/09 01:06:25;;;;;;;9.15;4.57;;;-0.30;58.10;;;;;;5041131;28;20471;-57
2024/01/09 01:08:51;;;;;;;11.38;6.18;;;-0.30;58.10;;;;;;5050537;28;20051;-60
2024/01/09 01:11:20;;;;;;;9.85;5.95;;;-0.30;58.00;;;;;;5045569;28;20044;-60
2024/01/09 01:13:50;;;;;;;7.32;5.20;;;-0.30;58.10;;;;;;5031976;28;20121;-61
2024/01/09 01:16:16;;;;;;;10.05;6.20;;;-0.30;58.10;;;;;;5045319;28;20073;-58
2024/01/09 01:18:43;;;;;;;9.40;5.53;;;-0.40;58.10;;;;;;5031862;28;20072;-57
2024/01/09 01:21:10;;;;;;;9.00;5.25;;;-0.40;58.20;;;;;;5049325;28;20049;-56
2024/01/09 01:23:38;;;;;;;6.70;5.03;;;-0.40;58.20;;;;;;5051096;28;20048;-58
2024/01/09 01:26:04;;;;;;;10.55;5.53;;;-0.40;58.10;;;;;;5048801;28;20049;-57
2024/01/09 01:28:31;;;;;;;8.23;4.82;;;-0.30;58.20;;;;;;5033097;28;20599;-58
2024/01/09 01:30:58;;;;;;;11.10;6.07;;;-0.40;58.10;;;;;;5043311;28;20040;-59
2024/01/09 01:33:25;;;;;;;9.05;5.60;;;-0.40;58.00;;;;;;5051312;28;20033;-59
2024/01/09 01:35:51;;;;;;;8.73;4.75;;;-0.40;58.00;;;;;;5036459;28;20070;-57
2024/01/09 01:38:18;;;;;;;9.07;4.72;;;-0.40;58.10;;;;;;5039077;28;20037;-60
2024/01/09 01:40:45;;;;;;;9.05;5.25;;;-0.40;58.00;;;;;;5050872;28;20047;-59
2024/01/09 01:43:14;;;;;;;8.82;4.80;;;-0.40;58.00;;;;;;5051304;28;20055;-57
2024/01/09 01:45:41;;;;;;;8.73;4.88;;;-0.40;58.00;;;;;;5037101;28;20068;-60
2024/01/09 01:48:09;;;;;;;7.93;4.38;;;-0.40;58.00;;;;;;5027687;28;20424;-57
2024/01/09 01:50:38;;;;;;;7.07;4.15;;;-0.40;58.00;;;;;;5040883;28;20068;-60
2024/01/09 01:53:08;;;;;;;5.38;3.38;;;-0.40;57.90;;;;;;5051024;28;20052;-58
2024/01/09 01:55:36;;;;;;;7.72;3.95;;;-0.40;57.90;;;;;;5044075;28;20058;-59
2024/01/09 01:58:03;;;;;;;9.23;5.63;;;-0.50;57.90;;;;;;5037272;28;20106;-58
2024/01/09 02:00:32;;;;;;;7.28;4.70;;;-0.50;57.90;;;;;;5050746;28;20405;-59
2024/01/09 02:03:00;;;;;;;10.32;4.78;;;-0.50;57.90;;;;;;5045120;28;20515;-58
2024/01/09 02:05:28;;;;;;;8.35;4.85;;;-0.50;57.80;;;;;;5038497;28;20110;-57
2024/01/09 02:07:57;;;;;;;7.47;4.63;;;-0.50;57.80;;;;;;5048616;28;20045;-61
2024/01/09 02:10:24;;;;;;;6.10;4.25;;;-0.50;57.80;;;;;;5049060;28;20120;-60
2024/01/09 02:12:50;;;;;;;7.07;4.32;;;-0.50;57.90;;;;;;5039618;28;20042;-58
2024/01/09 02:15:17;;;;;;;6.78;4.55;;;-0.50;57.80;;;;;;5040146;28;20095;-59
2024/01/09 02:17:46;;;;;;;9.05;4.40;;;-0.50;57.70;;;;;;5045082;28;20115;-60
2024/01/09 02:20:14;;;;;;;7.97;4.65;;;-0.50;57.60;;;;;;5035441;28;20412;-57
2024/01/09 02:22:41;;;;;;;6.07;3.88;;;-0.50;57.70;;;;;;5050878;28;20392;-57
2024/01/09 02:25:08;;;;;;;6.85;4.40;;;-0.60;57.60;;;;;;5047255;28;20045;-57
2024/01/09 02:27:55;;;;;;;7.55;4.88;;;-0.60;57.60;;;;;;5040243;28;20133;-59
2024/01/09 02:30:22;;;;;;;8.18;4.60;;;-0.60;57.40;;;;;;5044857;28;20041;-58
2024/01/09 02:32:50;;;;;;;7.53;4.10;;;-0.50;57.80;;;;;;5050250;28;20049;-60
2024/01/09 02:35:20;;;;;;;6.85;4.72;;;-0.60;57.70;;;;;;5050128;28;20045;-59
2024/01/09 02:37:47;;;;;;;7.63;3.85;;;-0.60;57.60;;;;;;5038840;28;20393;-57
2024/01/09 02:40:16;;;;;;;6.10;3.72;;;-0.60;57.60;;;;;;5032042;28;20065;-57
2024/01/09 02:42:43;;;;;;;8.20;4.30;;;-0.60;57.60;;;;;;5050140;28;20045;-59
2024/01/09 02:45:13;;;;;;;8.05;3.92;;;-0.60;57.70;;;;;;5046783;28;20099;-61
2024/01/09 02:47:40;;;;;;;7.88;3.85;;;-0.70;57.60;;;;;;5019493;28;20046;-59
2024/01/09 02:50:07;;;;;;;7.80;4.07;;;-0.70;57.60;;;;;;5035034;28;20049;-60
2024/01/09 02:52:34;;;;;;;8.10;4.05;;;-0.60;57.80;;;;;;5049075;28;20128;-60
2024/01/09 02:55:01;;;;;;;5.70;3.90;;;-0.70;57.70;;;;;;5049475;28;20055;-59
2024/01/09 02:57:28;;;;;;;10.77;4.93;;;-0.70;57.60;;;;;;5032885;28;20041;-59
2024/01/09 02:59:55;;;;;;;7.45;3.88;;;-0.70;57.60;;;;;;5047174;28;20550;-61
2024/01/09 03:02:23;;;;;;;6.25;3.58;;;-0.70;57.60;;;;;;5049197;28;20045;-59
2024/01/09 03:04:52;;;;;;;6.35;4.38;;;-0.70;57.60;;;;;;5041570;28;20444;-59
2024/01/09 03:07:20;;;;;;;6.03;3.75;;;-0.70;58.20;;;;;;5036935;28;20535;-57
2024/01/09 03:09:50;;;;;;;5.55;3.92;;;-0.70;57.50;;;;;;5047128;28;20749;-60
2024/01/09 03:12:19;;;;;;;6.93;3.90;;;-0.80;57.40;;;;;;5066736;22;20049;-61
2024/01/09 03:14:45;;;;;;;7.25;4.43;;;-0.80;57.40;;;;;;5032092;28;20045;-60
2024/01/09 03:17:12;;;;;;;8.75;3.90;;;-0.80;57.30;;;;;;5030505;28;20045;-61
2024/01/09 03:19:40;;;;;;;6.53;3.75;;;-0.80;57.30;;;;;;5046120;28;20534;-61
2024/01/09 03:22:07;;;;;;;7.13;4.68;;;-0.80;57.30;;;;;;5044452;28;20079;-61
2024/01/09 03:24:36;;;;;;;5.97;3.50;;;-0.80;57.30;;;;;;5038213;28;20095;-60
2024/01/09 03:27:04;;;;;;;6.43;3.88;;;-0.80;57.40;;;;;;5037846;28;20045;-61
2024/01/09 03:29:33;;;;;;;7.00;3.95;;;-0.80;57.40;;;;;;5040760;28;20044;-60
2024/01/09 03:32:00;;;;;;;6.70;4.00;;;-0.80;57.40;;;;;;5023556;28;20052;-61
2024/01/09 03:34:26;;;;;;;6.95;4.10;;;-0.80;57.40;;;;;;5038451;28;20045;-61
2024/01/09 03:36:53;;;;;;;6.60;3.83;;;-0.80;57.40;;;;;;5040099;28;20412;-61
2024/01/09 03:39:20;;;;;;;6.30;3.67;;;-0.90;57.30;;;;;;5040784;28;20495;-60
2024/01/09 03:41:47;;;;;;;5.20;3.47;;;-0.80;57.40;;;;;;5039807;28;20129;-61
2024/01/09 03:44:13;;;;;;;5.07;3.00;;;-0.90;57.40;;;;;;5042431;28;20424;-60
2024/01/09 03:46:40;;;;;;;6.13;3.45;;;-0.90;57.30;;;;;;5041220;28;20049;-61
2024/01/09 03:49:07;;;;;;;5.45;3.83;;;-0.90;57.40;;;;;;5042426;28;20100;-60
2024/01/09 03:51:34;;;;;;;6.22;3.90;;;-0.90;57.30;;;;;;5038782;28;20049;-60
2024/01/09 03:54:01;;;;;;;6.47;3.80;;;-0.90;57.40;;;;;;5041540;28;20045;-61
2024/01/09 03:56:28;;;;;;;6.45;3.83;;;-0.90;57.40;;;;;;5038822;28;20129;-61
2024/01/09 03:58:55;;;;;;;6.38;3.63;;;-0.90;57.40;;;;;;5038746;28;20041;-61
2024/01/09 04:01:21;;;;;;;7.10;4.05;;;-0.90;57.40;;;;;;5039734;28;20044;-60
2024/01/09 04:03:49;;;;;;;5.30;3.90;;;-0.90;57.50;;;;;;5040491;28;20077;-61
2024/01/09 04:06:18;;;;;;;7.28;2.83;;;-0.90;57.50;;;;;;5022819;28;20048;-61
2024/01/09 04:08:47;;;;;;;6.78;3.70;;;-0.90;57.60;;;;;;5042771;28;20049;-61
2024/01/09 04:11:14;;;;;;;5.63;3.65;;;-0.90;57.60;;;;;;5041107;28;21244;-61
2024/01/09 04:13:45;;;;;;;6.35;4.35;;;-0.90;57.50;;;;;;5042000;28;20440;-61
2024/01/09 04:16:13;;;;;;;5.68;3.78;;;-0.90;57.50;;;;;;5041656;28;20079;-61
2024/01/09 04:18:39;;;;;;;6.13;4.50;;;-1.00;57.50;;;;;;5039193;28;20048;-61
2024/01/09 04:21:06;;;;;;;5.93;3.70;;;-1.00;57.60;;;;;;5042225;28;20082;-61
2024/01/09 04:23:35;;;;;;;7.93;4.20;;;-1.00;57.50;;;;;;5039090;28;20293;-61
2024/01/09 04:26:02;;;;;;;5.85;3.40;;;-1.00;57.50;;;;;;5008025;28;20047;-61
2024/01/09 04:28:28;;;;;;;8.20;5.15;;;-1.00;58.20;;;;;;5038827;28;20069;-61
2024/01/09 04:30:59;;;;;;;6.60;3.92;;;-1.00;57.50;;;;;;5042265;28;20041;-61
2024/01/09 04:33:26;;;;;;;7.53;3.85;;;-1.00;57.50;;;;;;5040223;28;20037;-60
2024/01/09 04:35:54;;;;;;;5.50;3.97;;;-1.00;57.50;;;;;;5041853;28;20048;-60
2024/01/09 04:38:26;;;;;;;6.40;4.13;;;-1.00;57.50;;;;;;5043948;28;20071;-61
2024/01/09 04:40:52;;;;;;;5.05;3.53;;;-1.00;57.50;;;;;;5042268;28;20045;-61
2024/01/09 04:43:19;;;;;;;8.32;4.18;;;-1.00;57.50;;;;;;5041285;28;20063;-61
2024/01/09 04:45:49;;;;;;;10.15;6.35;;;-1.00;57.50;;;;;;5040430;28;20119;-61
2024/01/09 04:48:18;;;;;;;6.07;3.20;;;-1.00;57.60;;;;;;5039383;28;20120;-61
2024/01/09 04:50:45;;;;;;;7.18;3.55;;;-0.90;57.70;;;;;;5042954;28;20057;-61
2024/01/09 04:53:13;;;;;;;7.82;3.97;;;-1.00;57.60;;;;;;5042159;28;20048;-61
2024/01/09 04:55:40;;;;;;;5.85;3.85;;;-1.10;57.50;;;;;;5046740;28;20042;-61
2024/01/09 04:58:09;;;;;;;5.28;3.38;;;-1.10;57.60;;;;;;5044749;28;20103;-61
2024/01/09 05:00:38;;;;;;;9.63;4.57;;;-1.10;57.70;;;;;;5046422;28;20055;-60
2024/01/09 05:03:05;;;;;;;8.15;4.45;;;-1.10;57.80;;;;;;5046538;28;20051;-61
2024/01/09 05:05:34;;;;;;;7.53;4.70;;;-1.10;58.00;;;;;;5043349;28;20786;-60
2024/01/09 05:08:01;;;;;;;5.22;3.55;;;-1.10;58.00;;;;;;5045787;28;20052;-60
2024/01/09 05:10:30;;;;;;;6.47;4.45;;;-1.10;58.10;;;;;;5043231;28;20049;-61
2024/01/09 05:12:58;;;;;;;8.38;4.63;;;-1.10;58.20;;;;;;5047392;28;20460;-61
2024/01/09 05:15:24;;;;;;;7.55;4.18;;;-1.10;58.20;;;;;;5046689;28;20052;-61
2024/01/09 05:17:51;;;;;;;6.65;4.40;;;-1.10;58.20;;;;;;5042803;28;20626;-61
2024/01/09 05:20:20;;;;;;;6.32;4.10;;;-1.20;58.10;;;;;;5046192;28;20041;-61
2024/01/09 05:22:47;;;;;;;7.50;4.53;;;-1.10;58.20;;;;;;5045449;28;20395;-61
2024/01/09 05:25:14;;;;;;;6.30;4.00;;;-1.20;58.10;;;;;;5046729;28;20076;-61
2024/01/09 05:27:43;;;;;;;8.07;4.75;;;-1.20;58.20;;;;;;5050034;28;20131;-61
2024/01/09 05:30:10;;;;;;;6.40;4.22;;;-1.20;58.20;;;;;;5051509;28;20115;-61
2024/01/09 05:32:37;;;;;;;6.55;3.95;;;-1.20;58.20;;;;;;5049750;28;20434;-61
2024/01/09 05:35:04;;;;;;;9.77;4.75;;;-1.20;58.20;;;;;;5055173;28;20044;-60
2024/01/09 05:37:31;;;;;;;8.23;4.07;;;-1.20;58.80;;;;;;5044931;28;20386;-60
2024/01/09 05:39:58;;;;;;;6.88;5.40;;;-1.20;58.20;;;;;;5041123;28;20476;-60
2024/01/09 05:42:25;;;;;;;7.75;4.20;;;-1.20;58.30;;;;;;5061451;28;20048;-61
2024/01/09 05:44:51;;;;;;;7.13;4.35;;;-1.20;58.30;;;;;;5059316;28;20091;-60
2024/01/09 05:47:18;;;;;;;7.65;5.00;;;-1.20;58.40;;;;;;5028844;28;20518;-61
2024/01/09 05:49:47;;;;;;;10.45;4.85;;;-1.30;58.40;;;;;;5021366;28;20057;-60
2024/01/09 05:52:14;;;;;;;7.40;5.13;;;-1.30;58.50;;;;;;5027695;28;20116;-60
2024/01/09 05:54:46;;;;;;;7.85;4.68;;;-1.20;58.60;;;;;;5039912;28;20040;-61
2024/01/09 05:57:14;;;;;;;9.23;4.80;;;-1.20;58.60;;;;;;5051862;28;20052;-61
2024/01/09 05:59:40;;;;;;;8.02;5.28;;;-1.30;58.70;;;;;;5044896;28;20116;-61
2024/01/09 06:02:07;;;;;;;10.25;5.10;;;-1.20;58.70;;;;;;5052765;28;20048;-61
2024/01/09 06:04:34;;;;;;;5.97;4.25;;;-1.30;58.60;;;;;;5040666;28;20068;-61
2024/01/09 06:07:01;;;;;;;11.60;4.05;;;-1.20;58.80;;;;;;5048388;28;20056;-62
2024/01/09 06:09:28;;;;;;;8.10;5.13;;;-1.20;58.80;;;;;;5053247;28;20072;-63
2024/01/09 06:11:55;;;;;;;9.10;4.55;;;-1.20;58.70;;;;;;5040346;28;20069;-61
2024/01/09 06:14:21;;;;;;;9.30;5.30;;;-1.20;58.70;;;;;;5041415;28;20507;-61
2024/01/09 06:16:48;;;;;;;8.85;5.10;;;-1.30;58.60;;;;;;5041587;28;20044;-60
2024/01/09 06:19:15;;;;;;;10.18;5.57;;;-1.30;58.70;;;;;;5035864;28;20041;-61
2024/01/09 06:21:42;;;;;;;7.95;4.90;;;-1.30;58.70;;;;;;5043532;28;20128;-61
2024/01/09 06:24:08;;;;;;;8.45;4.32;;;-1.30;58.70;;;;;;5044511;28;20778;-62
2024/01/09 06:26:35;;;;;;;7.40;4.63;;;-1.30;58.70;;;;;;5041466;28;20041;-62
2024/01/09 06:29:02;;;;;;;9.70;4.65;;;-1.30;58.70;;;;;;5040184;28;20045;-61
2024/01/09 06:31:28;;;;;;;7.78;5.28;;;-1.30;58.80;;;;;;5038027;28;20426;-61
2024/01/09 06:33:55;;;;;;;10.10;6.05;;;-1.30;58.90;;;;;;5047097;28;20041;-62
2024/01/09 06:36:22;;;;;;;11.27;4.78;;;-1.30;58.90;;;;;;5044074;28;20500;-60
2024/01/09 06:38:51;;;;;;;7.85;4.95;;;-1.30;58.90;;;;;;5044702;28;20068;-61
2024/01/09 06:41:18;;;;;;;12.63;6.00;;;-1.40;58.90;;;;;;5044371;28;20037;-61
2024/01/09 06:43:48;;;;;;;8.50;5.30;;;-1.40;58.80;;;;;;5042788;28;20053;-61
2024/01/09 06:46:14;;;;;;;7.43;4.80;;;-1.40;58.90;;;;;;5043265;28;20072;-61
2024/01/09 06:48:41;;;;;;;8.23;5.47;;;-1.40;58.90;;;;;;5039378;28;20052;-61
2024/01/09 06:51:11;;;;;;;8.50;5.25;;;-1.40;58.90;;;;;;5040009;28;20048;-61
2024/01/09 06:53:37;;;;;;;10.20;5.05;;;-1.40;59.00;;;;;;5049453;28;20049;-61
2024/01/09 06:56:05;;;;;;;8.43;5.35;;;-1.40;59.00;;;;;;5045335;28;20075;-62
2024/01/09 06:58:32;;;;;;;8.48;5.15;;;-1.40;59.00;;;;;;5034028;28;20104;-62
2024/01/09 07:00:59;;;;;;;10.00;5.20;;;-1.40;59.10;;;;;;5047660;28;20045;-61
2024/01/09 07:03:25;;;;;;;7.53;4.57;;;-1.40;59.10;;;;;;5045341;28;20037;-61
2024/01/09 07:05:52;;;;;;;8.82;4.95;;;-1.40;59.10;;;;;;5043984;28;20436;-61
2024/01/09 07:08:19;;;;;;;7.93;4.82;;;-1.40;59.10;;;;;;5041812;28;20064;-61
2024/01/09 07:10:46;;;;;;;12.95;6.25;;;-1.50;59.10;;;;;;5051953;28;20057;-61
2024/01/09 07:13:13;;;;;;;8.70;5.38;;;-1.40;59.20;;;;;;5052691;28;20116;-62
2024/01/09 07:15:39;;;;;;;6.88;4.18;;;-1.50;59.20;;;;;;5043943;28;20033;-61
2024/01/09 07:18:09;;;;;;;7.38;4.93;;;-1.50;59.10;;;;;;5037059;28;20048;-61
2024/01/09 07:20:37;;;;;;;8.30;5.00;;;-1.40;59.20;;;;;;5044980;28;20087;-61
2024/01/09 07:23:04;;;;;;;10.50;5.80;;;-1.40;59.20;;;;;;5047860;28;20120;-60
2024/01/09 07:25:45;;;;;;;8.23;5.10;;;-1.50;59.20;;;;;;5046542;28;20053;-61
2024/01/09 07:28:12;;;;;;;7.00;5.07;;;-1.50;59.10;;;;;;5044092;28;20052;-61
2024/01/09 07:30:38;;;;;;;9.73;6.03;;;-1.50;59.10;;;;;;5046330;28;20123;-61
2024/01/09 07:33:05;;;;;;;9.20;5.15;;;-1.50;59.10;;;;;;5044368;28;20558;-61
2024/01/09 07:35:37;;;;;;;10.25;5.18;;;-1.50;59.20;;;;;;5047368;28;20095;-61
2024/01/09 07:38:04;;;;;;;8.32;5.88;;;-1.50;59.20;;;;;;5040608;28;20159;-61
2024/01/09 07:40:31;;;;;;;8.85;5.38;;;-1.50;59.20;;;;;;5037164;28;20399;-61
2024/01/09 07:42:59;;;;;;;9.65;5.05;;;-1.50;59.20;;;;;;5047817;28;20133;-62
2024/01/09 07:45:29;;;;;;;8.45;5.03;;;-1.50;59.30;;;;;;5047518;28;20075;-61
2024/01/09 07:47:57;;;;;;;8.20;4.75;;;-1.50;59.30;;;;;;5045949;28;20044;-63
2024/01/09 07:50:23;;;;;;;10.43;5.75;;;-1.50;59.30;;;;;;5053904;28;20036;-62
2024/01/09 07:52:50;;;;;;;10.10;5.55;;;-1.50;59.30;;;;;;5049448;28;20066;-62
2024/01/09 07:55:17;;;;;;;8.82;5.10;;;-1.50;59.30;;;;;;5039716;28;20500;-62
2024/01/09 07:57:44;;;;;;;9.38;5.38;;;-1.50;59.30;;;;;;5029869;28;20466;-62
2024/01/09 08:00:11;;;;;;;8.75;5.75;;;-1.40;59.40;;;;;;5030079;28;20041;-62
2024/01/09 08:02:38;;;;;;;10.73;5.82;;;-1.40;59.40;;;;;;5028697;28;20061;-62
2024/01/09 08:05:05;;;;;;;12.68;6.82;;;-1.40;59.30;;;;;;5048214;28;20076;-62
2024/01/09 08:07:32;;;;;;;11.00;6.40;;;-1.40;59.90;;;;;;5048170;28;20431;-62
2024/01/09 08:10:01;;;;;;;11.07;7.50;;;-1.40;59.30;;;;;;5045668;28;20118;-62
2024/01/09 08:12:27;;;;;;;14.07;6.93;;;-1.40;59.40;;;;;;5044852;28;20483;-62
2024/01/09 08:14:54;;;;;;;10.40;6.10;;;-1.50;59.30;;;;;;5044957;28;20132;-62
2024/01/09 08:17:21;;;;;;;10.43;5.75;;;-1.40;59.50;;;;;;5048538;28;20121;-63
2024/01/09 08:19:48;;;;;;;11.07;6.28;;;-1.40;59.40;;;;;;5041839;28;20059;-63
2024/01/09 08:22:16;;;;;;;11.68;6.03;;;-1.40;59.40;;;;;;5048508;28;20112;-63
2024/01/09 08:24:45;;;;;;;11.80;6.97;;;-1.40;59.40;;;;;;5048265;28;20152;-62
2024/01/09 08:27:12;;;;;;;11.10;5.70;;;-1.40;59.40;;;;;;5042119;28;20052;-63
2024/01/09 08:29:43;;;;;;;8.95;6.05;;;-1.40;59.40;;;;;;5051395;28;20095;-62
2024/01/09 08:32:15;;;;;;;13.10;6.05;;;-1.40;59.30;;;;;;5051814;28;20495;-63
2024/01/09 08:34:41;;;;;;;10.50;5.75;;;-1.40;59.30;;;;;;5028427;28;20084;-63
2024/01/09 08:37:09;;;;;;;9.02;5.78;;;-1.40;59.20;;;;;;5046216;28;20072;-63
2024/01/09 08:39:35;;;;;;;10.45;5.38;;;-1.30;59.20;;;;;;5051096;28;20669;-63
2024/01/09 08:42:02;;;;;;;7.93;5.88;;;-1.30;59.70;;;;;;5052898;28;20119;-63
2024/01/09 08:44:29;;;;;;;9.75;5.75;;;-1.30;59.10;;;;;;5043924;28;20033;-63
2024/01/09 08:46:56;;;;;;;10.48;6.72;;;-1.30;59.10;;;;;;5032947;28;20053;-63
2024/01/09 08:49:23;;;;;;;8.15;5.18;;;-1.30;59.10;;;;;;5046439;28;20037;-63
2024/01/09 08:51:49;;;;;;;12.02;5.50;;;-1.30;59.10;;;;;;5051959;28;20125;-63
2024/01/09 08:54:16;;;;;;;11.20;5.35;;;-1.30;59.10;;;;;;5051999;28;20134;-63
2024/01/09 08:56:43;;;;;;;9.05;5.28;;;-1.30;59.00;;;;;;5050012;28;20041;-63
2024/01/09 08:59:10;;;;;;;10.20;6.03;;;-1.30;59.50;;;;;;5043564;28;20037;-63
2024/01/09 09:01:37;;;;;;;9.52;5.40;;;-1.30;58.90;;;;;;5049363;28;20037;-63
2024/01/09 09:04:04;;;;;;;8.40;5.50;;;-1.30;58.90;;;;;;5052425;28;20039;-63
2024/01/09 09:06:31;;;;;;;11.52;6.38;;;-1.20;59.00;;;;;;5040501;28;20049;-62
2024/01/09 09:08:58;;;;;;;11.90;6.95;;;-1.20;58.90;;;;;;5042827;28;20053;-63
2024/01/09 09:11:28;;;;;;;10.00;6.63;;;-1.20;58.90;;;;;;5051790;28;20057;-63
2024/01/09 09:13:54;;;;;;;10.20;5.90;;;-1.20;58.90;;;;;;5049014;28;20045;-63
2024/01/09 09:16:22;;;;;;;13.15;6.22;;;-1.20;58.90;;;;;;5046301;28;20068;-63
2024/01/09 09:18:48;;;;;;;9.95;6.00;;;-1.20;58.90;;;;;;5043993;28;20049;-63
2024/01/09 09:21:17;;;;;;;10.23;6.68;;;-1.20;58.90;;;;;;5083313;22;20474;-55
2024/01/09 09:23:44;;;;;;;11.48;6.15;;;-1.10;58.90;;;;;;5067874;28;20105;-56
2024/01/09 09:26:12;;;;;;;11.27;5.93;;;-1.10;58.90;;;;;;5070447;28;20415;-59
2024/01/09 09:28:42;;;;;;;10.15;6.75;;;-1.10;58.90;;;;;;5063928;28;20045;-58
2024/01/09 09:31:27;;;;;;;11.70;6.60;;;-1.10;59.00;;;;;;5045759;28;20051;-61
2024/01/09 09:33:58;;;;;;;12.23;7.28;;;-1.00;59.00;;;;;;5059241;28;20041;-60
2024/01/09 09:36:24;;;;;;;11.52;6.88;;;-1.00;58.80;;;;;;5055264;28;20068;-61
2024/01/09 09:38:53;;;;;;;12.10;7.15;;;-1.00;58.70;;;;;;5048617;28;20053;-60
2024/01/09 09:41:20;;;;;;;11.43;6.88;;;-1.00;58.70;;;;;;5068150;28;20052;-59
2024/01/09 09:43:55;;;;;;;11.93;6.80;;;-1.00;58.70;;;;;;5067908;28;20052;-61
2024/01/09 09:46:31;;;;;;;8.63;6.20;;;-0.90;58.50;;;;;;5058846;28;20463;-60
2024/01/09 09:48:59;;;;;;;10.73;5.90;;;-0.90;58.70;;;;;;5046732;28;20172;-59
2024/01/09 09:51:26;;;;;;;11.68;5.88;;;-0.90;58.60;;;;;;5065927;28;20054;-60
2024/01/09 09:53:54;;;;;;;11.57;6.60;;;-0.80;58.60;;;;;;5049145;28;20044;-59
2024/01/09 09:56:22;;;;;;;12.02;6.93;;;-0.80;58.60;;;;;;5061035;28;20052;-61
2024/01/09 09:58:49;;;;;;;11.35;7.07;;;-0.80;58.50;;;;;;5044758;28;20780;-58
2024/01/09 10:01:18;;;;;;;14.50;9.40;;;-0.80;58.50;;;;;;5051351;28;20041;-59
2024/01/09 10:04:02;;;;;;;11.38;7.72;;;-0.80;58.50;;;;;;5057765;28;20518;-58
2024/01/09 10:06:30;;;;;;;11.85;7.60;;;-0.80;58.20;;;;;;5051866;28;20122;-58
2024/01/09 10:09:03;;;;;;;12.25;7.70;;;-0.80;58.40;;;;;;5061107;28;20056;-58
2024/01/09 10:11:32;;;;;;;10.85;6.65;;;-0.70;58.30;;;;;;5057193;28;20037;-60
2024/01/09 10:14:00;;;;;;;9.10;5.78;;;-0.70;58.20;;;;;;5049603;28;20116;-60
2024/01/09 10:16:26;;;;;;;10.85;6.00;;;-0.70;58.20;;;;;;5050660;28;20597;-58
2024/01/09 10:18:56;;;;;;;9.32;6.20;;;-0.70;58.20;;;;;;5046419;28;20119;-61
2024/01/09 10:21:23;;;;;;;10.27;6.63;;;-0.70;58.10;;;;;;5054583;28;20038;-60
2024/01/09 10:23:53;;;;;;;12.05;6.97;;;-0.60;58.10;;;;;;5064269;28;20211;-60
2024/01/09 10:26:22;;;;;;;15.82;7.43;;;-0.60;58.20;;;;;;5055296;28;20037;-58
2024/01/09 10:28:51;;;;;;;10.95;6.57;;;-0.60;58.20;;;;;;5049027;28;20048;-57
2024/01/09 10:31:18;;;;;;;10.65;6.38;;;-0.60;58.10;;;;;;5061591;28;20127;-59
2024/01/09 10:33:47;;;;;;;8.45;5.75;;;-0.50;58.10;;;;;;5065507;28;20041;-57
2024/01/09 10:36:14;;;;;;;11.95;5.60;;;-0.50;58.00;;;;;;5048671;28;20072;-61
2024/01/09 10:38:41;;;;;;;9.77;5.82;;;-0.50;57.90;;;;;;5059809;28;20086;-60
2024/01/09 10:41:14;;;;;;;10.38;6.10;;;-0.50;57.90;;;;;;5061166;28;20124;-60
2024/01/09 10:43:44;;;;;;;10.57;5.85;;;-0.40;57.80;;;;;;5056402;28;20041;-57
2024/01/09 10:46:11;;;;;;;8.13;5.32;;;-0.40;57.80;;;;;;5054930;28;20102;-57
2024/01/09 10:48:40;;;;;;;10.63;5.70;;;-0.40;57.80;;;;;;5050259;28;20076;-59
2024/01/09 10:51:10;;;;;;;9.60;5.90;;;-0.30;57.90;;;;;;5056804;28;20057;-58
2024/01/09 10:53:40;;;;;;;9.18;6.07;;;-0.30;57.80;;;;;;5059142;28;20045;-58
2024/01/09 10:56:09;;;;;;;11.98;6.47;;;-0.30;57.70;;;;;;5057858;28;20037;-60
2024/01/09 10:58:36;;;;;;;8.95;5.78;;;-0.30;57.60;;;;;;5043284;28;20119;-59
2024/01/09 11:01:06;;;;;;;8.20;5.85;;;-0.20;57.70;;;;;;5061435;28;20080;-59
2024/01/09 11:03:33;;;;;;;11.98;6.25;;;-0.20;57.50;;;;;;5040108;28;20045;-59
2024/01/09 11:06:03;;;;;;;9.32;6.13;;;-0.20;57.50;;;;;;5052367;28;20053;-58
2024/01/09 11:08:36;;;;;;;12.32;6.18;;;-0.10;57.40;;;;;;5062725;28;20677;-61
2024/01/09 11:11:14;;;;;;;8.77;5.88;;;-0.10;57.30;;;;;;5051229;28;20044;-58
2024/01/09 11:13:47;;;;;;;10.33;5.93;;;-0.10;56.80;;;;;;5042328;28;20787;-61
2024/01/09 11:16:16;;;;;;;10.35;5.88;;;0.00;57.20;;;;;;5046747;28;20040;-59
2024/01/09 11:18:45;;;;;;;11.52;6.80;;;0.00;57.10;;;;;;5037467;28;20048;-57
2024/01/09 11:21:12;;;;;;;10.57;7.28;;;0.00;57.00;;;;;;5044848;28;20052;-60
2024/01/09 11:23:44;;;;;;;12.63;6.38;;;0.10;57.00;;;;;;5058787;28;20050;-59
2024/01/09 11:26:14;;;;;;;8.80;6.00;;;0.20;57.00;;;;;;5049889;28;20143;-60
2024/01/09 11:28:45;;;;;;;12.85;6.35;;;0.10;56.90;;;;;;5052491;28;20402;-60
2024/01/09 11:31:17;;;;;;;9.55;6.18;;;0.10;56.80;;;;;;5061944;28;20048;-60
2024/01/09 11:33:46;;;;;;;11.57;5.75;;;0.20;56.80;;;;;;5044184;28;20056;-61
2024/01/09 11:36:24;;;;;;;10.30;6.10;;;0.30;56.70;;;;;;5041209;28;20037;-60
2024/01/09 11:38:53;;;;;;;8.43;5.63;;;0.20;56.30;;;;;;5042589;28;20120;-60
2024/01/09 11:41:31;;;;;;;10.50;6.35;;;0.30;56.50;;;;;;5056516;28;20115;-60
2024/01/09 11:44:07;;;;;;;12.05;6.03;;;0.30;56.20;;;;;;5059526;28;20067;-58
2024/01/09 11:46:36;;;;;;;9.80;5.97;;;0.30;56.10;;;;;;5061562;28;20044;-58
2024/01/09 11:49:05;;;;;;;9.65;5.28;;;0.40;56.30;;;;;;5047858;28;20416;-58
2024/01/09 11:51:33;;;;;;;9.20;5.13;;;0.40;56.20;;;;;;5062880;28;20060;-59
2024/01/09 11:54:01;;;;;;;8.40;6.18;;;0.40;56.10;;;;;;5058075;28;20033;-58
2024/01/09 11:56:29;;;;;;;12.75;6.22;;;0.60;56.10;;;;;;5059429;28;20041;-59
2024/01/09 11:58:57;;;;;;;8.57;5.28;;;0.40;56.00;;;;;;5052061;28;20044;-59
2024/01/09 12:01:26;;;;;;;23.63;6.82;;;0.50;55.90;;;;;;5064163;28;20048;-58
2024/01/09 12:03:55;;;;;;;7.25;4.75;;;0.70;56.00;;;;;;5054933;28;20045;-58
2024/01/09 12:06:25;;;;;;;11.02;5.85;;;0.50;56.00;;;;;;5044876;28;20094;-58
2024/01/09 12:08:52;;;;;;;7.70;5.40;;;0.60;55.90;;;;;;5051707;28;20049;-59
2024/01/09 12:11:19;;;;;;;8.95;5.28;;;0.60;55.80;;;;;;5041125;28;20549;-59
2024/01/09 12:13:48;;;;;;;8.10;5.18;;;0.60;55.80;;;;;;5054513;28;20152;-59
2024/01/09 12:16:18;;;;;;;8.77;5.53;;;0.70;55.70;;;;;;5058843;28;20134;-59
2024/01/09 12:18:55;;;;;;;5.72;4.60;;;0.70;55.60;;;;;;5046981;28;20044;-57
2024/01/09 12:21:26;;;;;;;8.43;5.40;;;0.70;55.20;;;;;;5056912;28;20041;-58
2024/01/09 12:23:55;;;;;;;10.00;5.13;;;0.70;55.40;;;;;;5064527;28;20045;-57
2024/01/09 12:26:43;;;;;;;9.00;6.35;;;0.80;55.40;;;;;;5044247;28;20041;-58
2024/01/09 12:29:10;;;;;;;9.80;5.45;;;0.80;55.30;;;;;;5055560;28;20084;-59
2024/01/09 12:31:37;;;;;;;9.68;5.07;;;0.80;55.20;;;;;;5051861;28;20091;-57
2024/01/09 12:34:06;;;;;;;11.82;5.65;;;0.90;55.30;;;;;;5058085;28;20041;-57
2024/01/09 12:36:34;;;;;;;7.57;4.75;;;0.90;55.10;;;;;;5060863;28;20483;-57
2024/01/09 12:39:03;;;;;;;10.77;4.85;;;0.90;55.00;;;;;;5050546;28;20051;-59
2024/01/09 12:41:35;;;;;;;9.35;5.70;;;1.00;55.00;;;;;;5056021;28;20037;-59
2024/01/09 12:44:09;;;;;;;10.55;5.28;;;1.00;55.00;;;;;;5054754;28;20128;-59
2024/01/09 12:46:43;;;;;;;12.13;5.55;;;1.10;54.70;;;;;;5057796;28;20127;-59
2024/01/09 12:49:11;;;;;;;6.85;4.78;;;1.00;54.90;;;;;;5047707;28;20041;-58
2024/01/09 12:51:38;;;;;;;9.55;5.50;;;1.00;54.70;;;;;;5062201;28;20118;-59